sensor_id;sensor_type;location;lat;lon;timestamp;P1;durP1;ratioP1;P2;durP2;ratioP2
70985;SDS011;58645;43.068;25.610;2024-03-29T00:00:38;7.20;;;2.60;;
70985;SDS011;58645;43.068;25.610;2024-03-29T00:03:05;8.27;;;2.83;;
70985;SDS011;58645;43.068;25.610;2024-03-29T00:05:32;9.05;;;2.53;;
70985;SDS011;58645;43.068;25.610;2024-03-29T00:08:00;5.88;;;3.20;;
70985;SDS011;58645;43.068;25.610;2024-03-29T00:10:26;9.18;;;3.22;;
70985;SDS011;58645;43.068;25.610;2024-03-29T00:12:52;6.60;;;3.05;;
70985;SDS011;58645;43.068;25.610;2024-03-29T00:15:18;10.02;;;3.00;;
70985;SDS011;58645;43.068;25.610;2024-03-29T00:17:44;8.02;;;3.00;;
70985;SDS011;58645;43.068;25.610;2024-03-29T00:20:09;11.13;;;4.22;;
70985;SDS011;58645;43.068;25.610;2024-03-29T00:22:36;12.63;;;4.32;;
70985;SDS011;58645;43.068;25.610;2024-03-29T00:25:03;10.88;;;4.28;;
70985;SDS011;58645;43.068;25.610;2024-03-29T00:27:29;7.95;;;3.22;;
70985;SDS011;58645;43.068;25.610;2024-03-29T00:29:55;7.43;;;3.58;;
70985;SDS011;58645;43.068;25.610;2024-03-29T00:32:21;8.05;;;3.50;;
70985;SDS011;58645;43.068;25.610;2024-03-29T00:34:51;12.15;;;4.05;;
70985;SDS011;58645;43.068;25.610;2024-03-29T00:37:17;9.88;;;4.00;;
70985;SDS011;58645;43.068;25.610;2024-03-29T00:39:43;10.18;;;3.55;;
70985;SDS011;58645;43.068;25.610;2024-03-29T00:42:10;7.10;;;3.65;;
70985;SDS011;58645;43.068;25.610;2024-03-29T00:44:41;11.32;;;3.65;;
70985;SDS011;58645;43.068;25.610;2024-03-29T00:47:08;6.47;;;3.22;;
70985;SDS011;58645;43.068;25.610;2024-03-29T00:49:34;9.57;;;3.17;;
70985;SDS011;58645;43.068;25.610;2024-03-29T00:52:00;11.77;;;3.50;;
70985;SDS011;58645;43.068;25.610;2024-03-29T00:54:27;8.70;;;3.58;;
70985;SDS011;58645;43.068;25.610;2024-03-29T00:56:52;15.38;;;3.58;;
70985;SDS011;58645;43.068;25.610;2024-03-29T00:59:18;9.85;;;2.42;;
70985;SDS011;58645;43.068;25.610;2024-03-29T01:01:45;8.35;;;2.38;;
70985;SDS011;58645;43.068;25.610;2024-03-29T01:04:11;6.18;;;2.53;;
70985;SDS011;58645;43.068;25.610;2024-03-29T01:06:38;7.70;;;2.25;;
70985;SDS011;58645;43.068;25.610;2024-03-29T01:09:05;6.68;;;2.30;;
70985;SDS011;58645;43.068;25.610;2024-03-29T01:11:31;5.40;;;1.85;;
70985;SDS011;58645;43.068;25.610;2024-03-29T01:13:58;7.07;;;2.05;;
70985;SDS011;58645;43.068;25.610;2024-03-29T01:16:24;6.07;;;1.92;;
70985;SDS011;58645;43.068;25.610;2024-03-29T01:18:49;7.90;;;2.42;;
70985;SDS011;58645;43.068;25.610;2024-03-29T01:21:17;7.18;;;1.85;;
70985;SDS011;58645;43.068;25.610;2024-03-29T01:23:43;7.25;;;2.08;;
70985;SDS011;58645;43.068;25.610;2024-03-29T01:26:09;10.18;;;3.17;;
70985;SDS011;58645;43.068;25.610;2024-03-29T01:28:38;9.55;;;2.78;;
70985;SDS011;58645;43.068;25.610;2024-03-29T01:31:04;8.68;;;3.25;;
70985;SDS011;58645;43.068;25.610;2024-03-29T01:36:02;9.18;;;2.50;;
70985;SDS011;58645;43.068;25.610;2024-03-29T01:38:34;6.55;;;2.85;;
70985;SDS011;58645;43.068;25.610;2024-03-29T01:41:00;8.10;;;2.63;;
70985;SDS011;58645;43.068;25.610;2024-03-29T01:43:26;7.47;;;3.30;;
70985;SDS011;58645;43.068;25.610;2024-03-29T01:45:55;5.28;;;2.13;;
70985;SDS011;58645;43.068;25.610;2024-03-29T01:48:22;9.02;;;2.90;;
70985;SDS011;58645;43.068;25.610;2024-03-29T01:50:49;7.55;;;2.85;;
70985;SDS011;58645;43.068;25.610;2024-03-29T01:53:16;8.32;;;3.25;;
70985;SDS011;58645;43.068;25.610;2024-03-29T01:55:44;6.75;;;2.22;;
70985;SDS011;58645;43.068;25.610;2024-03-29T01:58:10;6.97;;;2.78;;
70985;SDS011;58645;43.068;25.610;2024-03-29T02:03:04;7.93;;;2.88;;
70985;SDS011;58645;43.068;25.610;2024-03-29T02:05:35;7.55;;;2.40;;
70985;SDS011;58645;43.068;25.610;2024-03-29T02:08:03;8.05;;;2.67;;
70985;SDS011;58645;43.068;25.610;2024-03-29T02:10:29;11.43;;;3.08;;
70985;SDS011;58645;43.068;25.610;2024-03-29T02:12:55;8.60;;;2.10;;
70985;SDS011;58645;43.068;25.610;2024-03-29T02:15:21;5.57;;;2.95;;
70985;SDS011;58645;43.068;25.610;2024-03-29T02:17:46;9.50;;;2.97;;
70985;SDS011;58645;43.068;25.610;2024-03-29T02:20:12;6.63;;;3.15;;
70985;SDS011;58645;43.068;25.610;2024-03-29T02:22:39;9.13;;;2.55;;
70985;SDS011;58645;43.068;25.610;2024-03-29T02:25:12;7.13;;;3.00;;
70985;SDS011;58645;43.068;25.610;2024-03-29T02:27:38;9.23;;;3.50;;
70985;SDS011;58645;43.068;25.610;2024-03-29T02:30:04;7.18;;;3.00;;
70985;SDS011;58645;43.068;25.610;2024-03-29T02:32:30;8.75;;;2.35;;
70985;SDS011;58645;43.068;25.610;2024-03-29T02:34:56;8.35;;;3.28;;
70985;SDS011;58645;43.068;25.610;2024-03-29T02:37:22;6.65;;;3.45;;
70985;SDS011;58645;43.068;25.610;2024-03-29T02:39:47;8.63;;;3.13;;
70985;SDS011;58645;43.068;25.610;2024-03-29T02:42:13;11.32;;;4.07;;
70985;SDS011;58645;43.068;25.610;2024-03-29T02:44:39;6.75;;;3.88;;
70985;SDS011;58645;43.068;25.610;2024-03-29T02:47:04;11.43;;;4.40;;
70985;SDS011;58645;43.068;25.610;2024-03-29T02:49:30;15.93;;;3.25;;
70985;SDS011;58645;43.068;25.610;2024-03-29T02:51:56;11.75;;;4.18;;
70985;SDS011;58645;43.068;25.610;2024-03-29T02:54:22;10.02;;;4.38;;
70985;SDS011;58645;43.068;25.610;2024-03-29T02:56:48;18.70;;;6.78;;
70985;SDS011;58645;43.068;25.610;2024-03-29T02:59:13;14.77;;;6.78;;
70985;SDS011;58645;43.068;25.610;2024-03-29T03:01:39;16.08;;;5.90;;
70985;SDS011;58645;43.068;25.610;2024-03-29T03:04:05;16.60;;;6.72;;
70985;SDS011;58645;43.068;25.610;2024-03-29T03:06:31;10.02;;;4.80;;
70985;SDS011;58645;43.068;25.610;2024-03-29T03:08:57;10.88;;;5.60;;
70985;SDS011;58645;43.068;25.610;2024-03-29T03:11:41;11.50;;;5.68;;
70985;SDS011;58645;43.068;25.610;2024-03-29T03:14:07;22.30;;;6.38;;
70985;SDS011;58645;43.068;25.610;2024-03-29T03:16:33;14.70;;;4.35;;
70985;SDS011;58645;43.068;25.610;2024-03-29T03:18:58;9.90;;;4.93;;
70985;SDS011;58645;43.068;25.610;2024-03-29T03:21:24;16.20;;;5.20;;
70985;SDS011;58645;43.068;25.610;2024-03-29T03:23:50;8.48;;;4.35;;
70985;SDS011;58645;43.068;25.610;2024-03-29T03:26:16;13.43;;;4.13;;
70985;SDS011;58645;43.068;25.610;2024-03-29T03:28:42;11.70;;;4.32;;
70985;SDS011;58645;43.068;25.610;2024-03-29T03:31:07;18.88;;;4.97;;
70985;SDS011;58645;43.068;25.610;2024-03-29T03:33:34;13.52;;;7.05;;
70985;SDS011;58645;43.068;25.610;2024-03-29T03:35:59;26.73;;;11.10;;
70985;SDS011;58645;43.068;25.610;2024-03-29T03:38:25;27.42;;;13.35;;
70985;SDS011;58645;43.068;25.610;2024-03-29T03:40:51;28.40;;;13.60;;
70985;SDS011;58645;43.068;25.610;2024-03-29T03:43:17;29.05;;;13.80;;
70985;SDS011;58645;43.068;25.610;2024-03-29T03:45:42;22.30;;;10.10;;
70985;SDS011;58645;43.068;25.610;2024-03-29T03:48:10;17.10;;;8.93;;
70985;SDS011;58645;43.068;25.610;2024-03-29T03:50:37;16.88;;;7.07;;
70985;SDS011;58645;43.068;25.610;2024-03-29T03:53:03;14.90;;;5.82;;
70985;SDS011;58645;43.068;25.610;2024-03-29T03:55:29;19.17;;;7.55;;
70985;SDS011;58645;43.068;25.610;2024-03-29T03:57:54;16.80;;;7.22;;
70985;SDS011;58645;43.068;25.610;2024-03-29T04:00:21;13.43;;;6.60;;
70985;SDS011;58645;43.068;25.610;2024-03-29T04:02:50;17.70;;;7.32;;
70985;SDS011;58645;43.068;25.610;2024-03-29T04:05:20;12.68;;;6.05;;
70985;SDS011;58645;43.068;25.610;2024-03-29T04:07:46;17.45;;;6.93;;
70985;SDS011;58645;43.068;25.610;2024-03-29T04:10:12;15.48;;;5.05;;
70985;SDS011;58645;43.068;25.610;2024-03-29T04:12:38;12.93;;;5.05;;
70985;SDS011;58645;43.068;25.610;2024-03-29T04:15:04;14.35;;;5.75;;
70985;SDS011;58645;43.068;25.610;2024-03-29T04:17:31;12.18;;;5.07;;
70985;SDS011;58645;43.068;25.610;2024-03-29T04:19:57;13.73;;;5.55;;
70985;SDS011;58645;43.068;25.610;2024-03-29T04:22:29;17.70;;;6.90;;
70985;SDS011;58645;43.068;25.610;2024-03-29T04:24:55;19.27;;;5.70;;
70985;SDS011;58645;43.068;25.610;2024-03-29T04:27:21;15.25;;;6.68;;
70985;SDS011;58645;43.068;25.610;2024-03-29T04:29:50;20.23;;;6.82;;
70985;SDS011;58645;43.068;25.610;2024-03-29T04:32:17;15.57;;;7.03;;
70985;SDS011;58645;43.068;25.610;2024-03-29T04:34:45;22.60;;;8.88;;
70985;SDS011;58645;43.068;25.610;2024-03-29T04:37:12;19.55;;;9.13;;
70985;SDS011;58645;43.068;25.610;2024-03-29T04:39:37;22.02;;;7.10;;
70985;SDS011;58645;43.068;25.610;2024-03-29T04:42:03;15.73;;;5.97;;
70985;SDS011;58645;43.068;25.610;2024-03-29T04:44:29;14.10;;;5.18;;
70985;SDS011;58645;43.068;25.610;2024-03-29T04:46:58;13.25;;;5.45;;
70985;SDS011;58645;43.068;25.610;2024-03-29T04:49:24;13.40;;;6.25;;
70985;SDS011;58645;43.068;25.610;2024-03-29T04:51:57;10.75;;;4.47;;
70985;SDS011;58645;43.068;25.610;2024-03-29T04:54:23;11.77;;;4.30;;
70985;SDS011;58645;43.068;25.610;2024-03-29T04:56:48;15.15;;;7.10;;
70985;SDS011;58645;43.068;25.610;2024-03-29T04:59:15;17.30;;;8.38;;
70985;SDS011;58645;43.068;25.610;2024-03-29T05:01:52;19.23;;;8.00;;
70985;SDS011;58645;43.068;25.610;2024-03-29T05:04:18;21.45;;;7.20;;
70985;SDS011;58645;43.068;25.610;2024-03-29T05:06:51;13.48;;;6.78;;
70985;SDS011;58645;43.068;25.610;2024-03-29T05:09:17;18.33;;;7.30;;
70985;SDS011;58645;43.068;25.610;2024-03-29T05:11:45;12.90;;;6.65;;
70985;SDS011;58645;43.068;25.610;2024-03-29T05:14:14;18.23;;;6.97;;
70985;SDS011;58645;43.068;25.610;2024-03-29T05:16:43;19.90;;;6.75;;
70985;SDS011;58645;43.068;25.610;2024-03-29T05:19:10;17.83;;;7.10;;
70985;SDS011;58645;43.068;25.610;2024-03-29T05:21:36;15.45;;;6.38;;
70985;SDS011;58645;43.068;25.610;2024-03-29T05:24:02;21.33;;;10.30;;
70985;SDS011;58645;43.068;25.610;2024-03-29T05:26:28;22.45;;;9.82;;
70985;SDS011;58645;43.068;25.610;2024-03-29T05:28:56;21.23;;;8.75;;
70985;SDS011;58645;43.068;25.610;2024-03-29T05:31:23;17.52;;;7.88;;
70985;SDS011;58645;43.068;25.610;2024-03-29T05:36:15;17.00;;;7.47;;
70985;SDS011;58645;43.068;25.610;2024-03-29T05:38:43;12.50;;;6.25;;
70985;SDS011;58645;43.068;25.610;2024-03-29T05:41:09;13.38;;;5.75;;
70985;SDS011;58645;43.068;25.610;2024-03-29T05:43:35;13.05;;;5.43;;
70985;SDS011;58645;43.068;25.610;2024-03-29T05:46:10;10.55;;;4.15;;
70985;SDS011;58645;43.068;25.610;2024-03-29T05:51:08;10.43;;;4.25;;
70985;SDS011;58645;43.068;25.610;2024-03-29T05:53:33;11.52;;;3.60;;
70985;SDS011;58645;43.068;25.610;2024-03-29T05:56:06;8.48;;;4.22;;
70985;SDS011;58645;43.068;25.610;2024-03-29T05:58:39;12.85;;;4.03;;
70985;SDS011;58645;43.068;25.610;2024-03-29T06:01:05;13.20;;;3.60;;
70985;SDS011;58645;43.068;25.610;2024-03-29T06:03:30;13.88;;;3.92;;
70985;SDS011;58645;43.068;25.610;2024-03-29T06:05:56;11.73;;;3.63;;
70985;SDS011;58645;43.068;25.610;2024-03-29T06:08:22;9.45;;;3.92;;
70985;SDS011;58645;43.068;25.610;2024-03-29T06:10:50;16.13;;;3.78;;
70985;SDS011;58645;43.068;25.610;2024-03-29T06:13:17;12.00;;;3.45;;
70985;SDS011;58645;43.068;25.610;2024-03-29T06:15:54;8.77;;;4.28;;
70985;SDS011;58645;43.068;25.610;2024-03-29T06:18:39;15.73;;;4.75;;
70985;SDS011;58645;43.068;25.610;2024-03-29T06:21:05;9.82;;;4.68;;
70985;SDS011;58645;43.068;25.610;2024-03-29T06:23:30;20.48;;;5.88;;
70985;SDS011;58645;43.068;25.610;2024-03-29T06:25:56;19.60;;;11.45;;
70985;SDS011;58645;43.068;25.610;2024-03-29T06:28:22;27.20;;;12.05;;
70985;SDS011;58645;43.068;25.610;2024-03-29T06:30:48;20.98;;;9.93;;
70985;SDS011;58645;43.068;25.610;2024-03-29T06:33:14;21.88;;;10.13;;
70985;SDS011;58645;43.068;25.610;2024-03-29T06:35:43;21.88;;;10.13;;
70985;SDS011;58645;43.068;25.610;2024-03-29T06:38:17;19.73;;;8.07;;
70985;SDS011;58645;43.068;25.610;2024-03-29T06:40:43;21.60;;;6.10;;
70985;SDS011;58645;43.068;25.610;2024-03-29T06:43:11;19.02;;;6.88;;
70985;SDS011;58645;43.068;25.610;2024-03-29T06:45:51;16.15;;;6.25;;
70985;SDS011;58645;43.068;25.610;2024-03-29T06:48:33;14.30;;;5.65;;
70985;SDS011;58645;43.068;25.610;2024-03-29T06:51:04;15.95;;;6.82;;
70985;SDS011;58645;43.068;25.610;2024-03-29T06:53:32;17.65;;;5.30;;
70985;SDS011;58645;43.068;25.610;2024-03-29T06:55:59;15.48;;;5.72;;
70985;SDS011;58645;43.068;25.610;2024-03-29T06:58:29;15.35;;;6.40;;
70985;SDS011;58645;43.068;25.610;2024-03-29T07:00:55;12.52;;;5.20;;
70985;SDS011;58645;43.068;25.610;2024-03-29T07:03:21;18.10;;;6.68;;
70985;SDS011;58645;43.068;25.610;2024-03-29T07:05:47;18.10;;;5.50;;
70985;SDS011;58645;43.068;25.610;2024-03-29T07:08:19;19.55;;;6.95;;
70985;SDS011;58645;43.068;25.610;2024-03-29T07:10:45;22.77;;;10.05;;
70985;SDS011;58645;43.068;25.610;2024-03-29T07:13:11;22.42;;;8.63;;
70985;SDS011;58645;43.068;25.610;2024-03-29T07:15:50;19.17;;;9.43;;
70985;SDS011;58645;43.068;25.610;2024-03-29T07:18:18;30.58;;;15.48;;
70985;SDS011;58645;43.068;25.610;2024-03-29T07:20:44;32.92;;;15.20;;
70985;SDS011;58645;43.068;25.610;2024-03-29T07:23:10;25.58;;;13.45;;
70985;SDS011;58645;43.068;25.610;2024-03-29T07:25:39;31.98;;;12.45;;
70985;SDS011;58645;43.068;25.610;2024-03-29T07:28:15;29.65;;;12.30;;
70985;SDS011;58645;43.068;25.610;2024-03-29T07:30:41;31.33;;;13.77;;
70985;SDS011;58645;43.068;25.610;2024-03-29T07:33:10;32.50;;;15.38;;
70985;SDS011;58645;43.068;25.610;2024-03-29T07:35:40;25.17;;;10.68;;
70985;SDS011;58645;43.068;25.610;2024-03-29T07:38:07;26.92;;;10.00;;
70985;SDS011;58645;43.068;25.610;2024-03-29T07:40:33;24.30;;;9.52;;
70985;SDS011;58645;43.068;25.610;2024-03-29T07:43:10;24.13;;;7.35;;
70985;SDS011;58645;43.068;25.610;2024-03-29T07:45:39;20.08;;;6.13;;
70985;SDS011;58645;43.068;25.610;2024-03-29T07:48:11;17.10;;;7.75;;
70985;SDS011;58645;43.068;25.610;2024-03-29T07:53:07;17.50;;;6.53;;
70985;SDS011;58645;43.068;25.610;2024-03-29T07:55:35;14.77;;;6.68;;
70985;SDS011;58645;43.068;25.610;2024-03-29T07:58:08;14.63;;;5.45;;
70985;SDS011;58645;43.068;25.610;2024-03-29T08:00:38;10.68;;;4.18;;
70985;SDS011;58645;43.068;25.610;2024-03-29T08:03:16;9.82;;;2.85;;
70985;SDS011;58645;43.068;25.610;2024-03-29T08:05:41;7.35;;;2.20;;
70985;SDS011;58645;43.068;25.610;2024-03-29T08:08:22;8.57;;;2.42;;
70985;SDS011;58645;43.068;25.610;2024-03-29T08:10:50;4.43;;;1.20;;
70985;SDS011;58645;43.068;25.610;2024-03-29T08:13:18;7.78;;;1.30;;
70985;SDS011;58645;43.068;25.610;2024-03-29T08:15:47;5.38;;;1.20;;
70985;SDS011;58645;43.068;25.610;2024-03-29T08:18:13;3.85;;;1.00;;
70985;SDS011;58645;43.068;25.610;2024-03-29T08:20:39;5.18;;;0.82;;
70985;SDS011;58645;43.068;25.610;2024-03-29T08:23:05;2.30;;;0.65;;
70985;SDS011;58645;43.068;25.610;2024-03-29T08:25:31;4.82;;;1.10;;
70985;SDS011;58645;43.068;25.610;2024-03-29T08:27:56;5.82;;;0.80;;
70985;SDS011;58645;43.068;25.610;2024-03-29T08:30:27;6.38;;;0.80;;
70985;SDS011;58645;43.068;25.610;2024-03-29T08:33:00;5.57;;;0.82;;
70985;SDS011;58645;43.068;25.610;2024-03-29T08:35:32;3.65;;;0.75;;
70985;SDS011;58645;43.068;25.610;2024-03-29T08:38:24;3.03;;;0.65;;
70985;SDS011;58645;43.068;25.610;2024-03-29T08:40:50;3.35;;;0.70;;
70985;SDS011;58645;43.068;25.610;2024-03-29T08:43:16;4.25;;;0.82;;
70985;SDS011;58645;43.068;25.610;2024-03-29T08:45:45;3.97;;;0.73;;
70985;SDS011;58645;43.068;25.610;2024-03-29T08:48:11;4.20;;;0.88;;
70985;SDS011;58645;43.068;25.610;2024-03-29T08:50:37;4.60;;;0.52;;
70985;SDS011;58645;43.068;25.610;2024-03-29T08:53:05;3.58;;;0.80;;
70985;SDS011;58645;43.068;25.610;2024-03-29T08:55:41;3.88;;;0.90;;
70985;SDS011;58645;43.068;25.610;2024-03-29T08:58:07;4.13;;;0.82;;
70985;SDS011;58645;43.068;25.610;2024-03-29T09:00:54;3.88;;;0.88;;
70985;SDS011;58645;43.068;25.610;2024-03-29T09:03:38;2.67;;;0.55;;
70985;SDS011;58645;43.068;25.610;2024-03-29T09:06:36;2.95;;;0.55;;
70985;SDS011;58645;43.068;25.610;2024-03-29T09:09:05;2.67;;;1.10;;
70985;SDS011;58645;43.068;25.610;2024-03-29T09:12:16;2.47;;;0.60;;
70985;SDS011;58645;43.068;25.610;2024-03-29T09:15:12;3.15;;;0.63;;
70985;SDS011;58645;43.068;25.610;2024-03-29T09:18:28;3.95;;;0.77;;
70985;SDS011;58645;43.068;25.610;2024-03-29T09:20:58;4.18;;;0.77;;
70985;SDS011;58645;43.068;25.610;2024-03-29T09:23:25;1.88;;;0.52;;
70985;SDS011;58645;43.068;25.610;2024-03-29T09:26:00;3.85;;;1.00;;
70985;SDS011;58645;43.068;25.610;2024-03-29T09:28:29;4.30;;;0.73;;
70985;SDS011;58645;43.068;25.610;2024-03-29T09:31:03;4.57;;;0.73;;
70985;SDS011;58645;43.068;25.610;2024-03-29T09:33:32;2.50;;;0.60;;
70985;SDS011;58645;43.068;25.610;2024-03-29T09:36:01;3.58;;;0.68;;
70985;SDS011;58645;43.068;25.610;2024-03-29T09:38:37;3.97;;;0.70;;
70985;SDS011;58645;43.068;25.610;2024-03-29T09:41:10;3.33;;;0.90;;
70985;SDS011;58645;43.068;25.610;2024-03-29T09:43:45;3.03;;;0.50;;
70985;SDS011;58645;43.068;25.610;2024-03-29T09:46:13;1.95;;;0.43;;
70985;SDS011;58645;43.068;25.610;2024-03-29T09:48:41;4.63;;;0.60;;
70985;SDS011;58645;43.068;25.610;2024-03-29T09:51:28;2.90;;;0.57;;
70985;SDS011;58645;43.068;25.610;2024-03-29T09:54:02;1.63;;;0.45;;
70985;SDS011;58645;43.068;25.610;2024-03-29T09:56:35;2.22;;;0.70;;
70985;SDS011;58645;43.068;25.610;2024-03-29T09:59:05;3.85;;;0.90;;
70985;SDS011;58645;43.068;25.610;2024-03-29T10:01:31;4.05;;;0.90;;
70985;SDS011;58645;43.068;25.610;2024-03-29T10:04:00;2.72;;;1.00;;
70985;SDS011;58645;43.068;25.610;2024-03-29T10:06:41;5.68;;;0.90;;
70985;SDS011;58645;43.068;25.610;2024-03-29T10:09:19;2.90;;;1.20;;
70985;SDS011;58645;43.068;25.610;2024-03-29T10:11:54;2.83;;;0.73;;
70985;SDS011;58645;43.068;25.610;2024-03-29T10:14:23;4.53;;;0.90;;
70985;SDS011;58645;43.068;25.610;2024-03-29T10:16:50;2.70;;;1.00;;
70985;SDS011;58645;43.068;25.610;2024-03-29T10:19:17;2.60;;;0.80;;
70985;SDS011;58645;43.068;25.610;2024-03-29T10:21:43;3.13;;;0.77;;
70985;SDS011;58645;43.068;25.610;2024-03-29T10:24:15;3.10;;;0.82;;
70985;SDS011;58645;43.068;25.610;2024-03-29T10:26:44;3.72;;;0.73;;
70985;SDS011;58645;43.068;25.610;2024-03-29T10:29:14;4.68;;;1.00;;
70985;SDS011;58645;43.068;25.610;2024-03-29T10:32:26;4.07;;;0.82;;
70985;SDS011;58645;43.068;25.610;2024-03-29T10:34:55;5.85;;;0.90;;
70985;SDS011;58645;43.068;25.610;2024-03-29T10:38:06;2.85;;;0.82;;
70985;SDS011;58645;43.068;25.610;2024-03-29T10:40:33;2.15;;;0.70;;
70985;SDS011;58645;43.068;25.610;2024-03-29T10:43:11;3.42;;;0.70;;
70985;SDS011;58645;43.068;25.610;2024-03-29T10:45:38;3.38;;;0.73;;
70985;SDS011;58645;43.068;25.610;2024-03-29T10:48:09;3.63;;;0.93;;
70985;SDS011;58645;43.068;25.610;2024-03-29T10:50:35;3.03;;;0.70;;
70985;SDS011;58645;43.068;25.610;2024-03-29T10:53:02;3.38;;;0.82;;
70985;SDS011;58645;43.068;25.610;2024-03-29T10:55:33;4.22;;;1.00;;
70985;SDS011;58645;43.068;25.610;2024-03-29T10:58:00;5.50;;;0.88;;
70985;SDS011;58645;43.068;25.610;2024-03-29T11:00:29;4.45;;;0.85;;
70985;SDS011;58645;43.068;25.610;2024-03-29T11:03:12;1.95;;;0.52;;
70985;SDS011;58645;43.068;25.610;2024-03-29T11:05:51;2.85;;;0.70;;
70985;SDS011;58645;43.068;25.610;2024-03-29T11:10:51;2.30;;;0.47;;
70985;SDS011;58645;43.068;25.610;2024-03-29T11:16:04;3.40;;;0.73;;
70985;SDS011;58645;43.068;25.610;2024-03-29T11:18:30;3.55;;;0.90;;
70985;SDS011;58645;43.068;25.610;2024-03-29T11:20:57;3.15;;;0.75;;
70985;SDS011;58645;43.068;25.610;2024-03-29T11:23:24;2.45;;;0.70;;
70985;SDS011;58645;43.068;25.610;2024-03-29T11:25:54;3.58;;;0.90;;
70985;SDS011;58645;43.068;25.610;2024-03-29T11:30:51;2.28;;;0.90;;
70985;SDS011;58645;43.068;25.610;2024-03-29T11:35:57;3.03;;;1.10;;
70985;SDS011;58645;43.068;25.610;2024-03-29T11:38:34;2.70;;;0.60;;
70985;SDS011;58645;43.068;25.610;2024-03-29T11:43:36;7.15;;;0.80;;
70985;SDS011;58645;43.068;25.610;2024-03-29T11:46:04;3.20;;;0.80;;
70985;SDS011;58645;43.068;25.610;2024-03-29T11:48:35;3.65;;;0.52;;
70985;SDS011;58645;43.068;25.610;2024-03-29T11:51:02;4.28;;;0.80;;
70985;SDS011;58645;43.068;25.610;2024-03-29T11:53:29;7.60;;;0.90;;
70985;SDS011;58645;43.068;25.610;2024-03-29T11:55:59;5.65;;;0.88;;
70985;SDS011;58645;43.068;25.610;2024-03-29T11:58:29;3.92;;;0.70;;
70985;SDS011;58645;43.068;25.610;2024-03-29T12:00:57;2.72;;;0.73;;
70985;SDS011;58645;43.068;25.610;2024-03-29T12:03:25;3.47;;;0.63;;
70985;SDS011;58645;43.068;25.610;2024-03-29T12:05:52;3.17;;;0.68;;
70985;SDS011;58645;43.068;25.610;2024-03-29T12:08:20;4.22;;;0.90;;
70985;SDS011;58645;43.068;25.610;2024-03-29T12:10:47;3.97;;;0.98;;
70985;SDS011;58645;43.068;25.610;2024-03-29T12:13:15;5.13;;;0.70;;
70985;SDS011;58645;43.068;25.610;2024-03-29T12:15:42;3.08;;;0.93;;
70985;SDS011;58645;43.068;25.610;2024-03-29T12:18:08;3.33;;;0.93;;
70985;SDS011;58645;43.068;25.610;2024-03-29T12:20:38;2.30;;;0.60;;
70985;SDS011;58645;43.068;25.610;2024-03-29T12:23:05;2.85;;;0.70;;
70985;SDS011;58645;43.068;25.610;2024-03-29T12:25:32;1.42;;;0.75;;
70985;SDS011;58645;43.068;25.610;2024-03-29T12:27:59;2.90;;;0.80;;
70985;SDS011;58645;43.068;25.610;2024-03-29T12:30:26;2.22;;;0.70;;
70985;SDS011;58645;43.068;25.610;2024-03-29T12:35:35;1.77;;;0.60;;
70985;SDS011;58645;43.068;25.610;2024-03-29T12:38:04;2.28;;;0.73;;
70985;SDS011;58645;43.068;25.610;2024-03-29T12:40:34;2.78;;;0.73;;
70985;SDS011;58645;43.068;25.610;2024-03-29T12:43:03;2.83;;;0.80;;
70985;SDS011;58645;43.068;25.610;2024-03-29T12:45:30;5.40;;;0.70;;
70985;SDS011;58645;43.068;25.610;2024-03-29T12:47:56;2.15;;;0.47;;
70985;SDS011;58645;43.068;25.610;2024-03-29T12:52:59;3.78;;;0.73;;
70985;SDS011;58645;43.068;25.610;2024-03-29T12:55:27;2.10;;;0.60;;
70985;SDS011;58645;43.068;25.610;2024-03-29T12:57:55;2.85;;;0.63;;
70985;SDS011;58645;43.068;25.610;2024-03-29T13:00:22;2.30;;;0.60;;
70985;SDS011;58645;43.068;25.610;2024-03-29T13:02:48;2.63;;;0.60;;
70985;SDS011;58645;43.068;25.610;2024-03-29T13:05:15;1.88;;;0.68;;
70985;SDS011;58645;43.068;25.610;2024-03-29T13:07:41;2.55;;;1.33;;
70985;SDS011;58645;43.068;25.610;2024-03-29T13:10:07;2.67;;;0.77;;
70985;SDS011;58645;43.068;25.610;2024-03-29T13:12:39;4.10;;;0.80;;
70985;SDS011;58645;43.068;25.610;2024-03-29T13:15:18;4.03;;;0.70;;
70985;SDS011;58645;43.068;25.610;2024-03-29T13:17:46;2.10;;;0.40;;
70985;SDS011;58645;43.068;25.610;2024-03-29T13:20:13;4.43;;;0.80;;
70985;SDS011;58645;43.068;25.610;2024-03-29T13:22:41;4.10;;;0.65;;
70985;SDS011;58645;43.068;25.610;2024-03-29T13:25:15;4.40;;;0.75;;
70985;SDS011;58645;43.068;25.610;2024-03-29T13:27:45;4.63;;;1.30;;
70985;SDS011;58645;43.068;25.610;2024-03-29T13:30:12;3.53;;;0.70;;
70985;SDS011;58645;43.068;25.610;2024-03-29T13:32:41;1.98;;;0.88;;
70985;SDS011;58645;43.068;25.610;2024-03-29T13:35:09;5.30;;;0.70;;
70985;SDS011;58645;43.068;25.610;2024-03-29T13:37:39;2.10;;;0.65;;
70985;SDS011;58645;43.068;25.610;2024-03-29T13:40:06;2.00;;;0.57;;
70985;SDS011;58645;43.068;25.610;2024-03-29T13:42:33;3.60;;;0.52;;
70985;SDS011;58645;43.068;25.610;2024-03-29T13:44:59;2.83;;;0.88;;
70985;SDS011;58645;43.068;25.610;2024-03-29T13:49:51;1.45;;;0.85;;
70985;SDS011;58645;43.068;25.610;2024-03-29T13:52:18;3.65;;;1.05;;
70985;SDS011;58645;43.068;25.610;2024-03-29T13:54:45;4.57;;;1.02;;
70985;SDS011;58645;43.068;25.610;2024-03-29T13:57:18;3.55;;;1.02;;
70985;SDS011;58645;43.068;25.610;2024-03-29T13:59:44;2.05;;;0.90;;
70985;SDS011;58645;43.068;25.610;2024-03-29T14:02:17;1.65;;;0.80;;
70985;SDS011;58645;43.068;25.610;2024-03-29T14:04:44;2.45;;;0.80;;
70985;SDS011;58645;43.068;25.610;2024-03-29T14:07:11;4.85;;;0.82;;
70985;SDS011;58645;43.068;25.610;2024-03-29T14:09:38;4.32;;;0.75;;
70985;SDS011;58645;43.068;25.610;2024-03-29T14:12:08;3.08;;;1.20;;
70985;SDS011;58645;43.068;25.610;2024-03-29T14:14:34;3.20;;;0.73;;
70985;SDS011;58645;43.068;25.610;2024-03-29T14:17:00;3.63;;;0.82;;
70985;SDS011;58645;43.068;25.610;2024-03-29T14:19:32;3.45;;;1.13;;
70985;SDS011;58645;43.068;25.610;2024-03-29T14:21:59;2.55;;;0.60;;
70985;SDS011;58645;43.068;25.610;2024-03-29T14:24:25;2.88;;;0.82;;
70985;SDS011;58645;43.068;25.610;2024-03-29T14:26:52;3.28;;;0.90;;
70985;SDS011;58645;43.068;25.610;2024-03-29T14:29:18;4.88;;;1.55;;
70985;SDS011;58645;43.068;25.610;2024-03-29T14:31:49;2.08;;;0.50;;
70985;SDS011;58645;43.068;25.610;2024-03-29T14:34:16;2.30;;;0.70;;
70985;SDS011;58645;43.068;25.610;2024-03-29T14:36:42;2.47;;;0.60;;
70985;SDS011;58645;43.068;25.610;2024-03-29T14:39:09;3.58;;;0.75;;
70985;SDS011;58645;43.068;25.610;2024-03-29T14:41:41;3.20;;;1.02;;
70985;SDS011;58645;43.068;25.610;2024-03-29T14:44:08;2.63;;;0.95;;
70985;SDS011;58645;43.068;25.610;2024-03-29T14:46:34;4.55;;;1.00;;
70985;SDS011;58645;43.068;25.610;2024-03-29T14:51:35;4.47;;;1.17;;
70985;SDS011;58645;43.068;25.610;2024-03-29T14:54:01;1.83;;;0.65;;
70985;SDS011;58645;43.068;25.610;2024-03-29T14:56:28;2.70;;;0.63;;
70985;SDS011;58645;43.068;25.610;2024-03-29T14:59:00;2.45;;;0.65;;
70985;SDS011;58645;43.068;25.610;2024-03-29T15:01:30;3.60;;;0.68;;
70985;SDS011;58645;43.068;25.610;2024-03-29T15:03:56;3.85;;;0.85;;
70985;SDS011;58645;43.068;25.610;2024-03-29T15:06:22;5.47;;;0.93;;
70985;SDS011;58645;43.068;25.610;2024-03-29T15:08:49;3.03;;;0.90;;
70985;SDS011;58645;43.068;25.610;2024-03-29T15:11:15;5.35;;;1.02;;
70985;SDS011;58645;43.068;25.610;2024-03-29T15:13:41;4.57;;;1.30;;